Time;durP1;ratioP1;P1;durP2;ratioP2;P2;SDS_P1;SDS_P2;PMS_P1;PMS_P2;Temp;Humidity;BMP_temperature;BMP_pressure;BME280_temperature;BME280_humidity;BME280_pressure;Samples;Min_cycle;Max_cycle;Signal;HPM_P1;HPM_P2
2022/09/06 00:01:10;;;;;;;5.25;3.50;;;;;;;20.94;100.00;101652.84;2610109;36;20995;-49
2022/09/06 00:03:39;;;;;;;6.00;4.00;;;;;;;20.76;100.00;101660.53;2611138;36;20044;-53
2022/09/06 00:06:09;;;;;;;6.60;3.83;;;;;;;20.72;100.00;101657.31;2611814;36;20046;-50
2022/09/06 00:08:38;;;;;;;6.18;3.72;;;;;;;20.63;100.00;101656.50;2613283;36;20044;-51
2022/09/06 00:11:09;;;;;;;9.13;4.15;;;;;;;20.65;100.00;101646.22;2611843;36;20065;-50
2022/09/06 00:13:38;;;;;;;7.03;3.40;;;;;;;20.71;100.00;101641.09;2612638;36;20909;-50
2022/09/06 00:16:09;;;;;;;4.53;3.13;;;;;;;20.78;100.00;101637.44;2615118;36;20585;-53
2022/09/06 00:18:38;;;;;;;5.65;3.28;;;;;;;20.85;100.00;101628.47;2613260;36;20057;-51
2022/09/06 00:21:16;;;;;;;8.55;4.28;;;;;;;20.88;100.00;101623.50;2611209;36;20065;-53
2022/09/06 00:23:44;;;;;;;8.68;3.60;;;;;;;20.85;100.00;101618.41;2613330;36;20042;-49
2022/09/06 00:26:15;;;;;;;5.95;3.65;;;;;;;20.89;100.00;101603.31;2613597;36;20034;-52
2022/09/06 00:28:44;;;;;;;9.35;4.25;;;;;;;20.79;100.00;101603.56;2611648;36;20038;-53
2022/09/06 00:31:14;;;;;;;6.68;4.00;;;;;;;20.86;100.00;101619.25;2610373;36;20046;-50
2022/09/06 00:33:43;;;;;;;7.28;4.03;;;;;;;20.99;100.00;101624.94;2611640;36;20077;-53
2022/09/06 00:36:13;;;;;;;6.13;4.20;;;;;;;20.75;100.00;101617.81;2630101;36;20589;-53
2022/09/06 00:38:42;;;;;;;6.55;4.07;;;;;;;20.64;100.00;101611.72;2611631;31;20058;-55
2022/09/06 00:41:12;;;;;;;7.85;4.18;;;;;;;20.79;100.00;101597.25;2611199;36;20034;-55
2022/09/06 00:43:43;;;;;;;7.80;3.72;;;;;;;20.74;100.00;101594.22;2612168;36;20034;-53
2022/09/06 00:46:16;;;;;;;5.22;4.00;;;;;;;20.70;100.00;101595.63;2611647;36;20042;-52
2022/09/06 00:48:47;;;;;;;5.18;4.10;;;;;;;20.72;100.00;101601.78;2611454;36;20062;-53
2022/09/06 00:51:18;;;;;;;6.55;3.83;;;;;;;20.65;100.00;101601.63;2611504;36;20038;-52
2022/09/06 00:53:46;;;;;;;5.72;4.10;;;;;;;20.64;100.00;101592.56;2611441;36;20034;-52
2022/09/06 00:56:15;;;;;;;5.47;3.45;;;;;;;20.60;100.00;101583.03;2611435;36;20058;-50
2022/09/06 00:58:46;;;;;;;;;;;;;;;20.65;100.00;101580.56;2611929;36;20038;-52
2022/09/06 01:01:14;;;;;;;7.32;3.65;;;;;;;20.57;100.00;101591.59;2610650;36;19950;-55
2022/09/06 01:03:43;;;;;;;5.13;3.90;;;;;;;20.48;100.00;101601.75;2611581;36;20045;-52
2022/09/06 01:06:23;;;;;;;4.93;3.45;;;;;;;20.44;100.00;101599.59;2614933;31;20057;-54
2022/09/06 01:09:03;;;;;;;7.13;4.03;;;;;;;20.36;100.00;101599.63;2615155;36;20035;-52
2022/09/06 01:11:46;;;;;;;5.05;3.55;;;;;;;20.37;100.00;101604.91;2615669;36;20034;-50
2022/09/06 01:14:28;;;;;;;4.82;3.10;;;;;;;20.33;100.00;101592.66;2615115;36;20034;-56
2022/09/06 01:17:04;;;;;;;5.97;3.70;;;;;;;20.34;100.00;101604.44;2615762;36;20057;-55
2022/09/06 01:19:56;;;;;;;8.25;3.88;;;;;;;20.40;100.00;101592.78;2615647;36;20039;-52
2022/09/06 01:22:44;;;;;;;6.25;3.88;;;;;;;20.43;100.00;101581.47;2615215;36;20443;-50
2022/09/06 01:25:34;;;;;;;9.55;4.80;;;;;;;20.49;100.00;101586.19;2614466;31;20555;-53
2022/09/06 01:28:29;;;;;;;5.30;3.45;;;;;;;20.44;100.00;101585.91;2614419;36;20046;-53
2022/09/06 01:31:07;;;;;;;7.43;3.70;;;;;;;20.45;100.00;101574.78;2614359;36;20033;-52
2022/09/06 01:33:43;;;;;;;8.77;3.87;;;;;;;20.48;100.00;101573.59;2613875;36;20045;-50
2022/09/06 01:36:15;;;;;;;8.43;3.80;;;;;;;20.34;100.00;101579.84;2615448;36;20027;-52
2022/09/06 01:38:43;;;;;;;6.22;4.22;;;;;;;20.24;100.00;101572.75;2614390;36;20081;-54
2022/09/06 01:41:12;;;;;;;8.20;3.95;;;;;;;20.17;100.00;101562.72;2615240;36;20053;-52
2022/09/06 01:43:47;;;;;;;5.72;3.95;;;;;;;20.26;100.00;101564.38;2615189;36;20035;-51
2022/09/06 01:46:23;;;;;;;8.35;3.78;;;;;;;20.36;100.00;101558.63;2615588;36;20029;-53
2022/09/06 01:49:09;;;;;;;5.22;4.18;;;;;;;20.22;100.00;101557.56;2614331;36;20073;-53
2022/09/06 01:51:50;;;;;;;6.82;3.58;;;;;;;20.21;100.00;101551.22;2614748;36;20061;-51
2022/09/06 01:54:34;;;;;;;6.07;3.92;;;;;;;20.11;100.00;101553.34;2614848;36;20085;-49
2022/09/06 01:57:14;;;;;;;10.88;4.60;;;;;;;20.08;100.00;101548.25;2614788;36;20026;-51
2022/09/06 02:00:09;;;;;;;6.88;4.00;;;;;;;20.03;100.00;101547.97;2613541;36;20534;-53
2022/09/06 02:02:50;;;;;;;6.05;4.13;;;;;;;20.07;100.00;101555.63;2613920;36;20034;-52
2022/09/06 02:05:25;;;;;;;5.97;4.63;;;;;;;20.05;100.00;101556.81;2615916;36;20039;-52
2022/09/06 02:07:57;;;;;;;10.35;4.82;;;;;;;19.92;100.00;101546.47;2615960;31;20030;-49
2022/09/06 02:10:32;;;;;;;6.85;5.13;;;;;;;19.88;100.00;101545.16;2614504;36;20085;-53
2022/09/06 02:13:03;;;;;;;7.38;4.75;;;;;;;19.82;100.00;101552.19;2615741;36;20022;-52
2022/09/06 02:15:36;;;;;;;6.32;4.70;;;;;;;19.82;100.00;101545.88;2617678;31;20534;-53
2022/09/06 02:18:11;;;;;;;7.10;4.22;;;;;;;19.81;100.00;101544.19;2614606;36;20035;-51
2022/09/06 02:20:44;;;;;;;5.53;4.50;;;;;;;20.00;100.00;101540.13;2614939;36;20027;-50
2022/09/06 02:23:14;;;;;;;6.95;4.20;;;;;;;19.87;100.00;101533.38;2615872;36;20035;-52
2022/09/06 02:25:48;;;;;;;5.95;4.10;;;;;;;19.81;100.00;101530.53;2613187;36;20467;-52
2022/09/06 02:28:16;;;;;;;6.10;3.80;;;;;;;19.79;100.00;101522.53;2611455;36;20034;-50
2022/09/06 02:30:51;;;;;;;8.88;3.55;;;;;;;19.78;100.00;101523.53;2612893;36;20047;-51
2022/09/06 02:33:22;;;;;;;4.97;3.67;;;;;;;19.79;100.00;101514.31;2613074;36;20539;-53
2022/09/06 02:35:54;;;;;;;5.30;3.45;;;;;;;19.77;100.00;101513.59;2615573;31;20593;-53
2022/09/06 02:38:24;;;;;;;5.15;3.50;;;;;;;19.84;100.00;101506.41;2634180;31;20503;-51
2022/09/06 02:40:55;;;;;;;5.13;3.97;;;;;;;19.82;100.00;101496.69;2615936;36;20045;-51
2022/09/06 02:43:24;;;;;;;5.93;3.88;;;;;;;19.84;100.00;101491.91;2615879;36;20034;-54
2022/09/06 02:45:54;;;;;;;4.20;3.15;;;;;;;19.84;100.00;101489.19;2617472;36;20037;-53
2022/09/06 02:48:23;;;;;;;5.70;3.30;;;;;;;20.02;100.00;101475.22;2616369;31;20026;-54
2022/09/06 02:50:51;;;;;;;5.47;3.75;;;;;;;20.10;100.00;101466.97;2615195;36;20066;-52
2022/09/06 02:53:20;;;;;;;6.85;3.15;;;;;;;20.05;100.00;101456.59;2615483;36;20082;-52
2022/09/06 02:55:50;;;;;;;6.30;3.10;;;;;;;20.02;100.00;101453.34;2616044;36;20478;-52
2022/09/06 02:58:18;;;;;;;6.03;4.13;;;;;;;19.92;100.00;101451.72;2614898;36;20042;-50
2022/09/06 03:00:46;;;;;;;7.55;3.50;;;;;;;19.97;100.00;101444.88;2616621;36;20073;-51
2022/09/06 03:03:17;;;;;;;4.53;3.65;;;;;;;19.98;100.00;101449.28;2615009;36;20039;-54
2022/09/06 03:05:49;;;;;;;7.75;3.88;;;;;;;19.90;100.00;101448.31;2616654;31;20085;-54
2022/09/06 03:08:19;;;;;;;6.10;4.00;;;;;;;19.86;100.00;101447.00;2614841;36;20026;-56
2022/09/06 03:10:51;;;;;;;6.88;4.00;;;;;;;19.92;100.00;101442.66;2615218;36;20038;-49
2022/09/06 03:13:19;;;;;;;5.50;3.72;;;;;;;19.99;100.00;101431.88;2614895;36;20035;-49
2022/09/06 03:15:52;;;;;;;6.57;3.78;;;;;;;19.89;100.00;101426.66;2615565;36;20031;-51
2022/09/06 03:18:22;;;;;;;4.65;3.40;;;;;;;19.99;100.00;101432.69;2615161;36;20061;-52
2022/09/06 03:20:51;;;;;;;6.47;3.25;;;;;;;19.96;100.00;101433.06;2613837;36;20570;-49
2022/09/06 03:23:20;;;;;;;5.72;4.05;;;;;;;19.89;100.00;101432.09;2615256;36;20035;-55
2022/09/06 03:25:48;;;;;;;5.88;3.65;;;;;;;20.02;100.00;101434.22;2615831;36;20037;-50
2022/09/06 03:28:17;;;;;;;4.67;2.77;;;;;;;19.98;100.00;101441.97;2613773;36;20072;-51
2022/09/06 03:30:46;;;;;;;7.00;3.03;;;;;;;19.96;100.00;101446.72;2614561;36;20383;-52
2022/09/06 03:33:14;;;;;;;;;;;;;;;19.90;100.00;101444.75;2614165;36;20023;-54
2022/09/06 03:35:49;;;;;;;5.80;3.17;;;;;;;20.01;100.00;101446.19;2615327;36;19948;-49
2022/09/06 03:38:17;;;;;;;5.10;3.00;;;;;;;20.03;100.00;101449.59;2614855;36;20062;-54
2022/09/06 03:40:47;;;;;;;5.55;2.88;;;;;;;20.06;100.00;101446.50;2615426;31;20423;-54
2022/09/06 03:43:15;;;;;;;5.18;2.90;;;;;;;20.04;100.00;101446.69;2615431;36;20022;-53
2022/09/06 03:45:47;;;;;;;5.57;3.33;;;;;;;19.92;100.00;101454.47;2617162;31;20504;-56
2022/09/06 03:48:16;;;;;;;6.07;2.70;;;;;;;19.89;100.00;101448.50;2615012;31;20069;-50
2022/09/06 03:50:53;;;;;;;4.50;3.03;;;;;;;19.82;100.00;101445.66;2614830;36;20061;-49
2022/09/06 03:53:22;;;;;;;3.85;2.95;;;;;;;20.01;100.00;101441.59;2615981;36;20065;-49
2022/09/06 03:55:53;;;;;;;5.53;3.30;;;;;;;19.99;100.00;101448.25;2615081;36;20086;-55
2022/09/06 03:58:23;;;;;;;4.82;3.13;;;;;;;20.00;100.00;101447.22;2613659;36;20034;-54
2022/09/06 04:01:01;;;;;;;4.60;3.10;;;;;;;19.85;100.00;101442.56;2615500;36;20038;-52
2022/09/06 04:03:29;;;;;;;3.67;3.17;;;;;;;19.78;100.00;101441.59;2614910;36;20618;-53
2022/09/06 04:06:00;;;;;;;2.97;2.60;;;;;;;19.79;100.00;101443.31;2615010;36;20035;-52
2022/09/06 04:08:29;;;;;;;3.95;2.67;;;;;;;19.76;100.00;101443.63;2616035;36;20118;-53
2022/09/06 04:10:59;;;;;;;5.35;3.25;;;;;;;19.73;100.00;101449.47;2615895;36;20443;-50
2022/09/06 04:13:28;;;;;;;4.25;2.95;;;;;;;19.51;100.00;101462.09;2615626;31;20101;-53
2022/09/06 04:15:57;;;;;;;4.43;3.00;;;;;;;19.53;100.00;101465.47;2615489;36;20532;-52
2022/09/06 04:18:26;;;;;;;3.33;2.78;;;;;;;19.50;100.00;101469.41;2615501;36;20459;-51
2022/09/06 04:20:56;;;;;;;5.25;3.10;;;;;;;19.50;100.00;101469.41;2615481;36;20500;-51
2022/09/06 04:23:29;;;;;;;4.13;2.60;;;;;;;19.52;100.00;101472.81;2615992;36;20034;-51
2022/09/06 04:25:59;;;;;;;3.40;2.80;;;;;;;19.40;100.00;101472.38;2614905;36;20026;-53
2022/09/06 04:28:28;;;;;;;4.03;2.72;;;;;;;19.36;100.00;101476.50;2614552;31;20606;-51
2022/09/06 04:30:58;;;;;;;4.05;2.97;;;;;;;19.34;100.00;101475.81;2615716;31;20673;-52
2022/09/06 04:33:28;;;;;;;4.15;2.70;;;;;;;19.29;100.00;101475.50;2613908;36;20038;-52
2022/09/06 04:35:58;;;;;;;6.47;3.17;;;;;;;19.27;100.00;101480.28;2615971;31;20036;-52
2022/09/06 04:38:32;;;;;;;4.85;2.65;;;;;;;19.23;100.00;101471.59;2614925;31;20034;-53
2022/09/06 04:41:00;;;;;;;4.75;3.60;;;;;;;19.14;100.00;101486.31;2615382;36;20049;-50
2022/09/06 04:43:29;;;;;;;4.57;3.10;;;;;;;19.06;100.00;101497.25;2615798;36;20026;-54
2022/09/06 04:45:58;;;;;;;4.55;2.88;;;;;;;19.05;100.00;101501.00;2615652;36;20322;-52
2022/09/06 04:48:26;;;;;;;4.32;2.55;;;;;;;19.13;100.00;101511.06;2615466;31;20868;-50
2022/09/06 04:50:54;;;;;;;4.68;3.22;;;;;;;19.17;100.00;101510.53;2614798;36;20034;-52
2022/09/06 04:53:23;;;;;;;4.20;2.92;;;;;;;19.10;100.00;101509.53;2615861;36;20069;-55
2022/09/06 04:55:54;;;;;;;5.45;3.67;;;;;;;19.03;100.00;101512.09;2613195;36;20042;-52
2022/09/06 04:58:22;;;;;;;5.35;3.30;;;;;;;19.01;100.00;101526.97;2614411;36;20061;-50
2022/09/06 05:00:50;;;;;;;3.77;3.00;;;;;;;19.01;100.00;101522.34;2615168;36;20038;-50
2022/09/06 05:03:18;;;;;;;5.35;3.17;;;;;;;19.08;100.00;101522.50;2614589;36;20287;-50
2022/09/06 05:05:47;;;;;;;4.93;3.70;;;;;;;19.22;100.00;101529.94;2612025;36;20038;-52
2022/09/06 05:08:15;;;;;;;9.10;3.27;;;;;;;19.10;100.00;101536.81;2613433;36;20330;-54
2022/09/06 05:10:45;;;;;;;5.00;3.87;;;;;;;18.96;100.00;101546.56;2613328;36;20296;-50
2022/09/06 05:13:16;;;;;;;6.18;4.03;;;;;;;18.91;100.00;101555.28;2614666;36;20058;-50
2022/09/06 05:15:44;;;;;;;5.63;4.63;;;;;;;18.84;100.00;101556.13;2614903;36;20070;-51
2022/09/06 05:18:12;;;;;;;8.18;4.15;;;;;;;18.94;100.00;101553.25;2615332;31;20034;-50
2022/09/06 05:20:41;;;;;;;6.82;4.63;;;;;;;18.98;100.00;101560.06;2615282;36;20042;-51
2022/09/06 05:23:09;;;;;;;11.43;5.00;;;;;;;19.01;100.00;101559.69;2616319;31;20780;-53
2022/09/06 05:25:37;;;;;;;7.32;4.45;;;;;;;18.96;100.00;101556.63;2615288;36;20027;-51
2022/09/06 05:28:05;;;;;;;8.07;5.22;;;;;;;18.90;100.00;101572.69;2614615;31;20082;-52
2022/09/06 05:30:36;;;;;;;6.07;4.80;;;;;;;18.97;100.00;101566.53;2614892;31;20626;-51
2022/09/06 05:33:04;;;;;;;7.07;4.75;;;;;;;19.05;100.00;101569.22;2614954;31;20788;-50
2022/09/06 05:35:33;;;;;;;5.30;4.40;;;;;;;19.00;100.00;101569.75;2615734;36;20065;-52
2022/09/06 05:38:01;;;;;;;7.82;5.47;;;;;;;19.01;100.00;101576.06;2615653;36;20034;-50
2022/09/06 05:40:33;;;;;;;7.13;4.70;;;;;;;19.07;100.00;101564.44;2615629;36;20026;-49
2022/09/06 05:43:01;;;;;;;10.48;5.72;;;;;;;19.29;100.00;101567.44;2615376;36;20069;-49
2022/09/06 05:45:29;;;;;;;7.77;5.10;;;;;;;19.34;100.00;101571.34;2615436;36;20077;-53
2022/09/06 05:48:00;;;;;;;9.20;6.17;;;;;;;19.11;100.00;101568.53;2615479;36;20291;-49
2022/09/06 05:50:28;;;;;;;5.95;4.80;;;;;;;19.06;100.00;101573.66;2615176;36;20045;-51
2022/09/06 05:52:57;;;;;;;8.27;5.37;;;;;;;19.09;100.00;101567.84;2616391;31;20440;-49
2022/09/06 05:55:25;;;;;;;6.72;4.65;;;;;;;19.18;100.00;101572.25;2615261;36;20326;-53
2022/09/06 05:57:54;;;;;;;6.30;4.93;;;;;;;19.33;100.00;101569.66;2615276;36;20035;-54
2022/09/06 06:00:22;;;;;;;8.02;4.97;;;;;;;19.41;100.00;101572.34;2615473;36;20543;-53
2022/09/06 06:02:51;;;;;;;7.43;5.47;;;;;;;19.51;100.00;101563.09;2614396;31;21205;-49
2022/09/06 06:05:22;;;;;;;9.43;5.60;;;;;;;19.43;100.00;101564.84;2615470;36;20027;-51
2022/09/06 06:07:50;;;;;;;7.30;4.97;;;;;;;19.43;100.00;101570.31;2615615;36;20061;-51
2022/09/06 06:10:18;;;;;;;8.10;5.50;;;;;;;19.34;100.00;101562.31;2612691;36;20030;-52
2022/09/06 06:12:47;;;;;;;9.25;6.15;;;;;;;19.11;100.00;101554.03;2607087;36;20030;-52
2022/09/06 06:15:15;;;;;;;8.35;5.82;;;;;;;19.17;100.00;101547.84;2615371;36;20451;-51
2022/09/06 06:17:43;;;;;;;8.63;5.25;;;;;;;19.37;100.00;101559.22;2615096;36;20034;-50
2022/09/06 06:20:12;;;;;;;9.32;5.65;;;;;;;19.34;100.00;101560.41;2615221;36;20062;-52
2022/09/06 06:22:43;;;;;;;7.43;5.55;;;;;;;19.30;100.00;101558.22;2615292;36;20571;-50
2022/09/06 06:25:11;;;;;;;10.23;6.15;;;;;;;19.20;100.00;101548.38;2615475;36;20435;-53
2022/09/06 06:27:39;;;;;;;9.03;6.30;;;;;;;19.16;100.00;101551.63;2614695;36;20039;-52
2022/09/06 06:30:09;;;;;;;7.72;5.43;;;;;;;19.29;100.00;101561.97;2614712;36;20349;-49
2022/09/06 06:32:37;;;;;;;9.18;6.95;;;;;;;19.30;100.00;101558.22;2615488;36;20045;-54
2022/09/06 06:35:08;;;;;;;9.00;6.15;;;;;;;19.36;100.00;101552.06;2615070;31;20034;-51
2022/09/06 06:37:36;;;;;;;13.98;7.43;;;;;;;19.41;100.00;101549.66;2615625;36;20527;-51
2022/09/06 06:40:08;;;;;;;11.52;8.10;;;;;;;19.42;100.00;101551.38;2614545;36;20034;-50
2022/09/06 06:42:37;;;;;;;16.40;8.50;;;;;;;19.64;100.00;101548.84;2613814;36;20038;-52
2022/09/06 06:45:06;;;;;;;12.60;8.18;;;;;;;19.77;100.00;101544.53;2615611;36;20030;-52
2022/09/06 06:47:34;;;;;;;;;;;;;;;19.89;100.00;101536.78;2616174;36;20038;-50
2022/09/06 06:50:02;;;;;;;8.63;6.57;;;;;;;20.13;100.00;101534.91;2615763;36;19943;-53
2022/09/06 06:52:31;;;;;;;13.52;8.40;;;;;;;20.20;100.00;101530.41;2616406;36;20057;-53
2022/09/06 06:54:59;;;;;;;8.60;6.57;;;;;;;20.36;100.00;101536.75;2615390;36;20046;-51
2022/09/06 06:57:30;;;;;;;9.63;7.57;;;;;;;20.21;100.00;101526.63;2615943;31;20555;-54
2022/09/06 06:59:58;;;;;;;10.02;7.78;;;;;;;20.21;100.00;101523.88;2616064;36;20325;-50
2022/09/06 07:02:26;;;;;;;9.90;7.55;;;;;;;20.09;100.00;101525.38;2615849;36;20047;-50
2022/09/06 07:04:55;;;;;;;11.93;8.30;;;;;;;20.17;100.00;101522.59;2616063;36;20451;-51
2022/09/06 07:07:23;;;;;;;10.90;6.78;;;;;;;20.54;100.00;101517.28;2615999;36;20089;-55
2022/09/06 07:09:53;;;;;;;12.85;7.63;;;;;;;20.70;100.00;101521.75;2615410;36;20030;-51
2022/09/06 07:12:21;;;;;;;12.10;7.70;;;;;;;20.55;100.00;101517.09;2615682;36;20034;-52
2022/09/06 07:14:52;;;;;;;12.02;7.45;;;;;;;20.53;100.00;101510.97;2616106;36;20622;-52
2022/09/06 07:17:20;;;;;;;8.20;6.20;;;;;;;20.75;100.00;101508.38;2615776;36;20574;-50
2022/09/06 07:19:49;;;;;;;9.10;6.80;;;;;;;20.94;100.00;101507.81;2615737;36;20539;-54
2022/09/06 07:22:17;;;;;;;11.07;7.22;;;;;;;21.22;100.00;101498.09;2614960;36;20069;-52
2022/09/06 07:24:45;;;;;;;9.43;5.57;;;;;;;21.15;100.00;101503.47;2615282;36;20034;-50
2022/09/06 07:27:13;;;;;;;7.60;5.88;;;;;;;21.12;100.00;101496.47;2615901;36;20293;-51
2022/09/06 07:29:42;;;;;;;7.78;5.70;;;;;;;21.21;100.00;101497.22;2615362;36;20038;-49
2022/09/06 07:32:13;;;;;;;10.43;5.82;;;;;;;21.47;100.00;101502.19;2615737;36;20053;-50
2022/09/06 07:34:41;;;;;;;8.30;5.57;;;;;;;21.64;100.00;101496.50;2615848;36;20034;-54
2022/09/06 07:37:09;;;;;;;9.20;5.55;;;;;;;21.91;100.00;101497.63;2615954;36;20057;-53
2022/09/06 07:39:38;;;;;;;7.28;4.85;;;;;;;21.84;100.00;101485.75;2615261;36;20034;-56
2022/09/06 07:42:07;;;;;;;6.68;4.28;;;;;;;22.00;100.00;101484.66;2615569;36;20463;-50
2022/09/06 07:44:36;;;;;;;7.35;3.90;;;;;;;21.96;100.00;101473.22;2615730;36;20045;-53
2022/09/06 07:47:05;;;;;;;7.03;3.90;;;;;;;22.00;100.00;101480.00;2615737;36;20046;-53
2022/09/06 07:49:36;;;;;;;6.85;4.63;;;;;;;22.12;100.00;101474.81;2616255;36;20459;-49
2022/09/06 07:52:04;;;;;;;6.63;4.60;;;;;;;22.08;100.00;101480.91;2615764;36;20043;-52
2022/09/06 07:54:32;;;;;;;6.32;4.85;;;;;;;22.27;100.00;101482.97;2615054;36;20039;-52
2022/09/06 07:57:01;;;;;;;5.38;4.22;;;;;;;22.24;100.00;101486.09;2615702;36;20038;-49
2022/09/06 07:59:29;;;;;;;6.68;4.50;;;;;;;22.25;100.00;101482.31;2615650;36;20030;-50
2022/09/06 08:01:57;;;;;;;7.10;4.45;;;;;;;22.32;100.00;101488.75;2616201;36;20038;-52
2022/09/06 08:04:29;;;;;;;5.78;4.43;;;;;;;22.44;100.00;101489.06;2616235;36;20065;-52
2022/09/06 08:07:01;;;;;;;6.05;4.20;;;;;;;22.88;100.00;101487.84;2616520;36;20451;-52
2022/09/06 08:09:29;;;;;;;6.05;3.83;;;;;;;22.83;100.00;101493.09;2615098;36;20038;-51
2022/09/06 08:11:57;;;;;;;4.70;3.90;;;;;;;23.04;100.00;101486.69;2614747;36;20031;-50
2022/09/06 08:14:26;;;;;;;5.47;4.00;;;;;;;23.08;100.00;101487.09;2615378;36;20038;-51
2022/09/06 08:16:54;;;;;;;5.55;3.30;;;;;;;23.02;100.00;101487.91;2615898;36;20034;-53
2022/09/06 08:19:22;;;;;;;5.50;2.95;;;;;;;23.03;100.00;101490.47;2615449;36;20038;-50
2022/09/06 08:21:51;;;;;;;3.65;2.67;;;;;;;23.28;100.00;101489.97;2615999;36;20034;-50
2022/09/06 08:24:22;;;;;;;3.33;2.88;;;;;;;23.73;100.00;101482.09;2614305;31;20034;-49
2022/09/06 08:26:50;;;;;;;4.90;3.45;;;;;;;23.69;100.00;101475.31;2615517;31;20069;-55
2022/09/06 08:29:18;;;;;;;5.93;3.45;;;;;;;23.69;100.00;101477.19;2615392;36;20057;-53
2022/09/06 08:31:47;;;;;;;5.50;3.35;;;;;;;23.73;100.00;101479.34;2615528;36;20043;-49
2022/09/06 08:34:15;;;;;;;3.47;2.92;;;;;;;23.80;100.00;101473.84;2614992;36;20034;-50
2022/09/06 08:36:45;;;;;;;6.70;3.95;;;;;;;23.48;100.00;101476.28;2615693;36;20023;-50
2022/09/06 08:39:13;;;;;;;4.75;3.35;;;;;;;23.83;100.00;101478.06;2614408;36;20555;-51
2022/09/06 08:41:50;;;;;;;5.13;3.80;;;;;;;23.81;100.00;101472.78;2615360;36;20062;-50
2022/09/06 08:44:22;;;;;;;6.35;4.88;;;;;;;23.97;100.00;101474.31;2615811;36;20547;-51
2022/09/06 08:46:57;;;;;;;4.63;3.25;;;;;;;24.07;100.00;101469.25;2615634;36;20034;-52
2022/09/06 08:49:27;;;;;;;6.18;3.65;;;;;;;24.12;100.00;101454.88;2615484;36;20058;-52
2022/09/06 08:52:08;;;;;;;4.65;3.78;;;;;;;24.52;100.00;101459.47;2615629;36;20577;-50
2022/09/06 08:54:39;;;;;;;5.97;3.88;;;;;;;24.12;100.00;101452.13;2615052;36;20061;-54
2022/09/06 08:57:16;;;;;;;5.03;3.65;;;;;;;24.13;100.00;101456.53;2633580;36;20428;-50
2022/09/06 08:59:45;;;;;;;4.57;3.47;;;;;;;24.42;100.00;101447.00;2615291;36;20027;-53
2022/09/06 09:02:16;;;;;;;4.55;2.90;;;;;;;24.38;100.00;101439.38;2615191;36;20062;-49
2022/09/06 09:04:47;;;;;;;5.07;3.25;;;;;;;24.88;100.00;101441.63;2615667;31;20594;-50
2022/09/06 09:07:33;;;;;;;7.82;2.75;;;;;;;25.13;100.00;101445.34;2615956;31;20035;-50
2022/09/06 09:10:07;;;;;;;3.53;2.78;;;;;;;25.10;100.00;101448.53;2615621;36;20450;-50
2022/09/06 09:12:45;;;;;;;4.32;3.03;;;;;;;24.82;100.00;101438.69;2615448;36;20023;-50
2022/09/06 09:15:16;;;;;;;3.88;2.40;;;;;;;24.89;100.00;101437.81;2616129;36;20598;-50
2022/09/06 09:17:46;;;;;;;3.80;2.08;;;;;;;25.04;100.00;101441.13;2616151;31;20700;-50
2022/09/06 09:20:14;;;;;;;4.90;3.17;;;;;;;24.78;100.00;101442.09;2614888;36;20061;-52
2022/09/06 09:22:43;;;;;;;4.07;1.95;;;;;;;25.19;100.00;101429.81;2615237;36;20026;-53
2022/09/06 09:25:17;;;;;;;;;;;;;;;25.32;100.00;101437.22;2616687;31;20421;-50
2022/09/06 09:27:56;;;;;;;3.83;2.25;;;;;;;25.46;100.00;101429.72;2615573;31;19946;-51
2022/09/06 09:30:25;;;;;;;2.58;1.80;;;;;;;25.60;100.00;101433.22;2615643;36;20042;-52
2022/09/06 09:32:53;;;;;;;5.03;2.33;;;;;;;25.40;100.00;101431.44;2615678;36;20600;-50
2022/09/06 09:35:25;;;;;;;7.78;2.40;;;;;;;25.58;100.00;101427.09;2615258;36;20708;-52
2022/09/06 09:38:05;;;;;;;5.10;1.88;;;;;;;25.50;100.00;101422.69;2615755;31;20611;-49
2022/09/06 09:40:38;;;;;;;4.68;2.13;;;;;;;25.77;100.00;101415.09;2615882;31;20026;-52
2022/09/06 09:43:18;;;;;;;3.95;2.30;;;;;;;25.84;100.00;101420.56;2615733;36;20029;-52
2022/09/06 09:45:48;;;;;;;4.68;2.17;;;;;;;25.82;100.00;101414.41;2615776;36;20034;-55
2022/09/06 09:48:22;;;;;;;3.28;2.00;;;;;;;26.42;100.00;101424.91;2615459;31;20034;-52
2022/09/06 09:50:51;;;;;;;2.50;1.98;;;;;;;26.11;100.00;101423.94;2615163;36;20090;-50
2022/09/06 09:53:23;;;;;;;5.30;2.42;;;;;;;26.55;100.00;101422.03;2615351;36;20056;-50
2022/09/06 09:55:57;;;;;;;3.05;2.03;;;;;;;26.51;100.00;101423.53;2615029;36;20030;-54
2022/09/06 09:58:36;;;;;;;6.10;2.25;;;;;;;26.28;100.00;101426.13;2615494;36;20459;-54
2022/09/06 10:01:13;;;;;;;2.53;2.08;;;;;;;26.61;100.00;101422.19;2615358;36;20061;-49
2022/09/06 10:03:41;;;;;;;4.35;2.58;;;;;;;27.05;100.00;101420.19;2615660;36;20554;-50
2022/09/06 10:06:13;;;;;;;3.92;2.10;;;;;;;26.69;100.00;101403.44;2615419;36;20081;-50
2022/09/06 10:08:44;;;;;;;5.47;2.13;;;;;;;27.19;100.00;101407.88;2614570;36;20061;-54
2022/09/06 10:11:16;;;;;;;3.30;1.98;;;;;;;27.08;100.00;101417.81;2614738;36;20102;-51
2022/09/06 10:13:47;;;;;;;3.47;2.15;;;;;;;26.93;100.00;101420.97;2615319;36;20023;-48
2022/09/06 10:16:15;;;;;;;3.55;1.98;;;;;;;27.33;100.00;101416.00;2615568;36;20029;-52
2022/09/06 10:18:47;;;;;;;3.78;2.28;;;;;;;27.21;100.00;101405.72;2615420;36;20069;-50
2022/09/06 10:21:18;;;;;;;5.03;2.20;;;;;;;26.91;100.00;101414.84;2615251;36;20126;-53
2022/09/06 10:24:00;;;;;;;4.63;2.05;;;;;;;27.28;100.00;101416.66;2615268;36;20039;-50
2022/09/06 10:26:34;;;;;;;4.85;2.50;;;;;;;27.39;98.92;101412.31;2615674;36;20046;-53
2022/09/06 10:29:08;;;;;;;2.92;2.13;;;;;;;27.60;94.99;101405.41;2616194;36;20049;-53
2022/09/06 10:32:07;;;;;;;6.93;2.00;;;;;;;27.45;100.00;101411.38;2617002;31;20026;-52
2022/09/06 10:34:56;;;;;;;4.47;2.10;;;;;;;27.32;98.52;101408.78;2616470;33;20035;-53
2022/09/06 10:37:40;;;;;;;9.82;2.33;;;;;;;27.45;100.00;101401.16;2616370;36;20022;-55
2022/09/06 10:40:11;;;;;;;4.50;2.17;;;;;;;27.39;97.65;101415.09;2615393;36;20045;-53
2022/09/06 10:42:45;;;;;;;4.45;1.95;;;;;;;27.19;98.17;101407.88;2615479;36;20034;-50
2022/09/06 10:45:30;;;;;;;2.00;1.42;;;;;;;27.68;88.14;101405.06;2615653;36;20596;-50
2022/09/06 10:48:05;;;;;;;3.08;1.42;;;;;;;27.95;89.33;101397.16;2616075;36;20039;-49
2022/09/06 10:50:43;;;;;;;3.85;2.50;;;;;;;27.64;86.10;101403.00;2616864;31;20034;-53
2022/09/06 10:53:17;;;;;;;5.60;1.92;;;;;;;27.62;95.49;101401.31;2615272;36;20023;-53
2022/09/06 10:55:51;;;;;;;5.03;2.10;;;;;;;28.09;92.60;101400.56;2615971;36;20065;-51
2022/09/06 10:58:29;;;;;;;3.60;2.20;;;;;;;28.18;83.71;101392.75;2616960;36;20738;-53
2022/09/06 11:01:00;;;;;;;4.38;2.00;;;;;;;28.24;92.63;101402.84;2616640;36;20034;-53
2022/09/06 11:03:33;;;;;;;4.80;3.55;;;;;;;27.78;94.68;101404.47;2616413;36;20082;-55
2022/09/06 11:06:08;;;;;;;6.03;2.60;;;;;;;27.86;97.58;101401.34;2616260;36;20030;-53
2022/09/06 11:08:45;;;;;;;4.78;2.38;;;;;;;27.71;95.09;101406.50;2616432;31;20034;-52
2022/09/06 11:11:18;;;;;;;3.70;2.30;;;;;;;27.77;92.43;101411.09;2616584;31;20039;-58
2022/09/06 11:13:49;;;;;;;4.35;2.53;;;;;;;27.53;97.24;101413.81;2616547;36;20077;-54
2022/09/06 11:16:23;;;;;;;5.47;3.03;;;;;;;27.82;95.08;101411.22;2616774;36;20022;-54
2022/09/06 11:19:00;;;;;;;6.50;3.17;;;;;;;27.78;100.00;101416.38;2616147;36;20034;-49
2022/09/06 11:21:58;;;;;;;6.13;2.85;;;;;;;28.13;94.49;101415.59;2616069;36;20039;-55
2022/09/06 11:24:40;;;;;;;3.95;2.58;;;;;;;28.48;91.62;101417.50;2617165;31;20518;-53
2022/09/06 11:27:15;;;;;;;4.13;2.50;;;;;;;27.86;92.90;101423.50;2616113;36;20042;-55
2022/09/06 11:29:55;;;;;;;3.38;2.40;;;;;;;28.37;92.12;101420.28;2616264;36;20045;-51
2022/09/06 11:32:37;;;;;;;4.53;3.10;;;;;;;28.19;81.62;101421.25;2616882;31;20455;-58
2022/09/06 11:35:10;;;;;;;3.92;2.40;;;;;;;28.24;98.01;101435.22;2616396;31;20027;-52
2022/09/06 11:37:42;;;;;;;5.85;3.60;;;;;;;27.75;93.03;101432.59;2615736;31;20045;-52
2022/09/06 11:40:21;;;;;;;8.48;3.42;;;;;;;27.95;94.52;101446.94;2615538;36;20038;-50